createdAt,value
2018-05-08T00:01:50.851Z,50.90
2018-05-08T00:04:18.533Z,51.58
2018-05-08T00:06:46.191Z,51.42
2018-05-08T00:09:14.058Z,51.79
2018-05-08T00:11:41.771Z,51.85
2018-05-08T00:14:09.584Z,52.19
2018-05-08T00:16:37.348Z,52.30
2018-05-08T00:19:05.071Z,52.11
2018-05-08T00:21:32.884Z,51.95
2018-05-08T00:24:00.630Z,51.83
2018-05-08T00:26:28.350Z,51.84
2018-05-08T00:28:56.113Z,52.18
2018-05-08T00:31:23.931Z,52.23
2018-05-08T00:33:51.647Z,51.87
2018-05-08T00:36:19.464Z,51.88
2018-05-08T00:38:47.180Z,52.32
2018-05-08T00:41:14.995Z,52.76
2018-05-08T00:43:42.862Z,53.22
2018-05-08T00:46:10.523Z,53.15
2018-05-08T00:48:38.251Z,52.83
2018-05-08T00:51:05.943Z,52.68
2018-05-08T00:53:33.656Z,52.62
2018-05-08T00:56:01.473Z,52.72
2018-05-08T00:58:29.146Z,53.09
2018-05-08T01:00:56.905Z,53.58
2018-05-08T01:03:24.664Z,53.59
2018-05-08T01:05:52.435Z,53.37
2018-05-08T01:08:20.301Z,52.98
2018-05-08T01:10:48.027Z,53.81
2018-05-08T01:13:15.831Z,53.53
2018-05-08T01:15:43.594Z,53.56
2018-05-08T01:18:11.360Z,53.55
2018-05-08T01:20:39.066Z,52.98
2018-05-08T01:23:06.786Z,52.58
2018-05-08T01:25:34.550Z,52.89
2018-05-08T01:28:02.315Z,53.03
2018-05-08T01:30:30.080Z,53.12
2018-05-08T01:32:57.798Z,53.84
2018-05-08T01:35:25.608Z,54.03
2018-05-08T01:37:53.476Z,54.27
2018-05-08T01:40:21.133Z,54.08
2018-05-08T01:42:48.902Z,54.30
2018-05-08T01:45:16.627Z,54.73
2018-05-08T01:47:44.328Z,55.11
2018-05-08T01:50:12.094Z,55.75
2018-05-08T01:52:39.859Z,56.15
2018-05-08T01:55:07.724Z,57.11
2018-05-08T01:57:35.382Z,58.60
2018-05-08T02:00:03.152Z,58.17
2018-05-08T02:02:31.022Z,57.42
2018-05-08T02:04:58.886Z,58.04
2018-05-08T02:07:26.540Z,57.70
2018-05-08T02:09:54.297Z,56.64
2018-05-08T02:12:22.076Z,57.41
2018-05-08T02:14:49.841Z,56.95
2018-05-08T02:17:17.552Z,56.48
2018-05-08T02:19:45.379Z,58.50
2018-05-08T02:22:13.136Z,57.42
2018-05-08T02:24:40.901Z,58.32
2018-05-08T02:27:08.663Z,57.90
2018-05-08T02:29:36.409Z,58.63
2018-05-08T02:32:04.192Z,57.81
2018-05-08T02:34:32.060Z,57.84
2018-05-08T02:36:59.824Z,57.54
2018-05-08T02:39:27.483Z,58.63
2018-05-08T02:41:55.164Z,58.94
2018-05-08T02:44:23.012Z,59.17
2018-05-08T02:46:50.727Z,58.66
2018-05-08T02:49:18.545Z,58.58
2018-05-08T02:51:46.309Z,57.74
2018-05-08T02:54:14.073Z,57.66
2018-05-08T02:56:41.838Z,57.45
2018-05-08T02:59:09.602Z,57.86
2018-05-08T03:01:37.365Z,57.68
2018-05-08T03:04:05.091Z,57.89
2018-05-08T03:06:32.901Z,57.82
2018-05-08T03:09:00.727Z,58.44
2018-05-08T03:11:28.528Z,58.61
2018-05-08T03:13:56.291Z,58.93
2018-05-08T03:16:24.161Z,59.28
2018-05-08T03:18:51.869Z,59.72
2018-05-08T03:21:19.684Z,59.67
2018-05-08T03:23:47.343Z,60.63
2018-05-08T03:26:15.113Z,60.63
2018-05-08T03:28:42.840Z,60.67
2018-05-08T03:31:10.642Z,62.14
2018-05-08T03:33:38.406Z,62.69
2018-05-08T03:36:06.234Z,62.84
2018-05-08T03:38:34.037Z,62.38
2018-05-08T03:41:01.868Z,62.86
2018-05-08T03:43:29.569Z,61.93
2018-05-08T03:45:57.332Z,61.23
2018-05-08T03:48:25.092Z,61.14
2018-05-08T03:50:52.850Z,61.02
2018-05-08T03:53:20.625Z,60.27
2018-05-08T03:55:48.287Z,60.42
2018-05-08T03:58:16.051Z,60.43
2018-05-08T04:00:55.592Z,61.67
2018-05-08T04:03:35.030Z,62.08
2018-05-08T04:09:03.220Z,61.79
2018-05-08T04:11:31.091Z,61.64
2018-05-08T04:13:58.754Z,61.46
2018-05-08T04:16:26.525Z,61.16
2018-05-08T04:18:54.171Z,60.65
2018-05-08T04:21:22.014Z,61.07
2018-05-08T04:23:49.751Z,60.50
2018-05-08T04:26:17.680Z,59.94
2018-05-08T04:28:45.384Z,59.46
2018-05-08T04:31:13.155Z,59.25
2018-05-08T04:33:40.968Z,58.85
2018-05-08T04:36:08.834Z,58.75
2018-05-08T04:38:36.550Z,58.61
2018-05-08T04:41:04.298Z,58.77
2018-05-08T04:43:32.058Z,59.28
2018-05-08T04:45:59.715Z,59.42
2018-05-08T04:48:27.517Z,59.57
2018-05-08T04:50:55.323Z,59.16
2018-05-08T04:53:23.089Z,59.22
2018-05-08T04:55:50.934Z,58.23
2018-05-08T04:58:18.722Z,57.21
2018-05-08T05:00:46.587Z,56.15
2018-05-08T05:03:15.170Z,55.80
2018-05-08T05:05:42.935Z,56.24
2018-05-08T05:08:10.700Z,55.58
2018-05-08T05:10:38.561Z,55.20
2018-05-08T05:13:06.284Z,54.39
2018-05-08T05:15:33.985Z,54.21
2018-05-08T05:18:01.718Z,54.57
2018-05-08T05:20:29.433Z,54.29
2018-05-08T05:22:57.183Z,53.63
2018-05-08T05:25:25.027Z,53.09
2018-05-08T05:27:52.612Z,52.80
2018-05-08T05:30:20.801Z,52.71
2018-05-08T05:32:48.553Z,52.30
2018-05-08T05:35:16.413Z,51.36
2018-05-08T05:37:44.131Z,50.46
2018-05-08T05:40:11.945Z,48.89
2018-05-08T05:42:39.851Z,49.45
2018-05-08T05:45:07.680Z,48.53
2018-05-08T05:47:35.546Z,44.86
2018-05-08T05:50:03.286Z,40.71
2018-05-08T05:52:31.076Z,37.05
2018-05-08T05:54:58.799Z,35.43
2018-05-08T05:57:26.604Z,36.78
2018-05-08T05:59:54.335Z,39.98
2018-05-08T06:02:22.134Z,39.21
2018-05-08T06:04:49.797Z,39.96
2018-05-08T06:07:17.672Z,39.38
2018-05-08T06:09:45.527Z,37.68
2018-05-08T06:12:13.396Z,34.25
2018-05-08T06:14:41.162Z,35.45
2018-05-08T06:17:08.927Z,39.41
2018-05-08T06:19:36.739Z,41.22
2018-05-08T06:22:04.555Z,42.00
2018-05-08T06:24:32.324Z,40.51
2018-05-08T06:26:59.981Z,40.96
2018-05-08T06:29:27.709Z,40.80
2018-05-08T06:31:55.400Z,41.43
2018-05-08T06:34:23.174Z,40.50
2018-05-08T06:36:51.041Z,40.78
2018-05-08T06:39:18.807Z,41.21
2018-05-08T06:41:46.644Z,40.80
2018-05-08T06:44:14.457Z,40.71
2018-05-08T06:46:42.331Z,40.37
2018-05-08T06:49:10.175Z,39.41
2018-05-08T06:51:37.945Z,39.71
2018-05-08T06:54:05.595Z,38.99
2018-05-08T06:56:33.362Z,37.06
2018-05-08T06:59:01.029Z,37.00
2018-05-08T07:01:28.785Z,36.04
2018-05-08T07:03:56.509Z,35.57
2018-05-08T07:06:24.318Z,36.08
2018-05-08T07:08:52.082Z,35.62
2018-05-08T07:11:19.845Z,35.44
2018-05-08T07:13:47.613Z,35.40
2018-05-08T07:16:15.536Z,35.08
2018-05-08T07:18:43.139Z,34.25
2018-05-08T07:21:10.901Z,34.86
2018-05-08T07:23:38.558Z,35.69
2018-05-08T07:26:06.434Z,34.79
2018-05-08T07:28:34.138Z,35.18
2018-05-08T07:31:01.954Z,34.84
2018-05-08T07:33:29.766Z,34.61
2018-05-08T07:35:57.483Z,33.78
2018-05-08T07:38:25.204Z,32.57
2018-05-08T07:40:53.019Z,32.82
2018-05-08T07:43:20.784Z,33.12
2018-05-08T07:45:48.569Z,33.67
2018-05-08T07:48:16.415Z,32.99
2018-05-08T07:50:44.144Z,32.97
2018-05-08T07:53:11.842Z,32.43
2018-05-08T07:55:39.607Z,32.75
2018-05-08T07:58:07.266Z,33.17
2018-05-08T08:00:34.931Z,32.95
2018-05-08T08:03:02.687Z,32.91
2018-05-08T08:05:30.351Z,32.62
2018-05-08T08:07:58.117Z,32.17
2018-05-08T08:10:25.886Z,31.08
2018-05-08T08:12:53.752Z,32.17
2018-05-08T08:15:21.518Z,31.99
2018-05-08T08:17:49.385Z,31.33
2018-05-08T08:20:17.253Z,30.75
2018-05-08T08:22:44.915Z,30.74
2018-05-08T08:25:12.683Z,30.16
2018-05-08T08:27:40.447Z,30.12
2018-05-08T08:30:08.208Z,29.32
2018-05-08T08:32:36.024Z,30.95
2018-05-08T08:35:03.850Z,29.97
2018-05-08T08:37:31.707Z,29.43
2018-05-08T08:39:59.365Z,29.58
2018-05-08T08:42:27.093Z,30.86
2018-05-08T08:44:54.897Z,28.12
2018-05-08T08:47:22.603Z,28.29
2018-05-08T08:49:50.324Z,27.17
2018-05-08T08:52:18.092Z,26.66
2018-05-08T08:54:45.807Z,26.38
2018-05-08T08:57:13.573Z,28.59
2018-05-08T08:59:41.282Z,27.68
2018-05-08T09:02:08.942Z,27.75
2018-05-08T09:04:36.648Z,27.32
2018-05-08T09:07:04.369Z,27.75
2018-05-08T09:09:32.032Z,25.88
2018-05-08T09:11:59.848Z,26.80
2018-05-08T09:14:27.663Z,27.01
2018-05-08T09:16:55.387Z,25.47
2018-05-08T09:19:23.193Z,27.33
2018-05-08T09:21:50.854Z,26.41
2018-05-08T09:24:18.563Z,26.86
2018-05-08T09:26:46.385Z,26.15
2018-05-08T09:29:14.216Z,26.17
2018-05-08T09:31:41.911Z,25.53
2018-05-08T09:34:09.677Z,25.87
2018-05-08T09:36:38.322Z,25.73
2018-05-08T09:39:06.948Z,25.57
2018-05-08T09:41:34.813Z,27.81
2018-05-08T09:44:03.004Z,26.58
2018-05-08T09:46:30.753Z,26.61
2018-05-08T09:48:58.517Z,25.94
2018-05-08T09:51:26.283Z,26.16
2018-05-08T09:53:54.045Z,26.34
2018-05-08T09:56:21.811Z,27.59
2018-05-08T09:58:49.466Z,26.23
2018-05-08T10:01:17.241Z,27.06
2018-05-08T10:03:45.179Z,27.48
2018-05-08T10:06:12.972Z,28.26
2018-05-08T10:08:40.735Z,28.51
2018-05-08T10:11:08.461Z,28.82
2018-05-08T10:13:36.265Z,28.58
2018-05-08T10:16:03.926Z,27.11
2018-05-08T10:18:31.567Z,28.22
2018-05-08T10:20:59.252Z,27.16
2018-05-08T10:23:27.022Z,27.60
2018-05-08T10:25:54.686Z,27.87
2018-05-08T10:28:22.430Z,27.29
2018-05-08T10:30:50.320Z,27.52
2018-05-08T10:33:18.177Z,27.88
2018-05-08T10:35:45.836Z,27.77
2018-05-08T10:38:13.498Z,27.43
2018-05-08T10:40:41.131Z,27.85
2018-05-08T10:43:09.028Z,27.69
2018-05-08T10:45:36.793Z,27.07
2018-05-08T10:48:04.454Z,26.84
2018-05-08T10:50:32.221Z,27.32
2018-05-08T10:53:00.086Z,26.71
2018-05-08T10:55:27.847Z,26.41
2018-05-08T10:57:55.557Z,24.73
2018-05-08T11:00:23.174Z,25.48
2018-05-08T11:02:50.935Z,25.27
2018-05-08T11:05:18.708Z,25.29
2018-05-08T11:07:46.572Z,26.71
2018-05-08T11:10:14.233Z,26.29
2018-05-08T11:12:41.986Z,25.93
2018-05-08T11:15:09.657Z,26.05
2018-05-08T11:17:37.368Z,25.24
2018-05-08T11:20:05.189Z,26.30
2018-05-08T11:22:33.006Z,25.08
2018-05-08T11:25:00.819Z,24.92
2018-05-08T11:27:28.687Z,25.24
2018-05-08T11:29:56.403Z,25.66
2018-05-08T11:32:24.216Z,23.71
2018-05-08T11:34:51.980Z,23.06
2018-05-08T11:37:20.359Z,23.45
2018-05-08T11:39:48.072Z,22.70
2018-05-08T11:42:15.888Z,23.37
2018-05-08T11:44:43.844Z,23.48
2018-05-08T11:47:11.511Z,24.57
2018-05-08T11:49:39.290Z,23.87
2018-05-08T11:52:07.050Z,23.92
2018-05-08T11:54:34.709Z,23.43
2018-05-08T11:57:02.367Z,23.70
2018-05-08T11:59:30.038Z,23.66
2018-05-08T12:01:57.904Z,23.89
2018-05-08T12:04:25.668Z,23.71
2018-05-08T12:06:53.332Z,24.37
2018-05-08T12:09:21.095Z,22.71
2018-05-08T12:11:48.794Z,22.71
2018-05-08T12:14:16.514Z,21.35
2018-05-08T12:16:44.229Z,22.49
2018-05-08T12:19:12.047Z,22.33
2018-05-08T12:21:39.768Z,21.55
2018-05-08T12:24:07.575Z,21.68
2018-05-08T12:26:35.426Z,21.23
2018-05-08T12:29:03.110Z,22.63
2018-05-08T12:31:30.859Z,22.49
2018-05-08T12:33:58.521Z,20.11
2018-05-08T12:36:26.467Z,21.16
2018-05-08T12:38:54.275Z,20.64
2018-05-08T12:41:21.927Z,20.33
2018-05-08T12:43:49.687Z,18.70
2018-05-08T12:46:17.458Z,20.06
2018-05-08T12:48:45.324Z,20.49
2018-05-08T12:51:12.992Z,19.41
2018-05-08T12:53:40.752Z,20.36
2018-05-08T12:56:08.469Z,22.27
2018-05-08T12:58:36.221Z,20.95
2018-05-08T13:01:04.077Z,20.92
2018-05-08T13:03:31.809Z,21.04
2018-05-08T13:05:59.472Z,20.96
2018-05-08T13:08:27.339Z,19.24
2018-05-08T13:10:55.078Z,19.23
2018-05-08T13:13:22.865Z,19.78
2018-05-08T13:15:50.633Z,21.13
2018-05-08T13:18:18.509Z,20.29
2018-05-08T13:20:46.263Z,20.93
2018-05-08T13:23:14.028Z,20.33
2018-05-08T13:25:41.682Z,20.23
2018-05-08T13:28:09.454Z,20.64
2018-05-08T13:30:37.116Z,19.99
2018-05-08T13:33:04.779Z,20.73
2018-05-08T13:35:32.435Z,21.20
2018-05-08T13:38:00.923Z,20.92
2018-05-08T13:40:28.637Z,20.56
2018-05-08T13:42:56.405Z,20.59
2018-05-08T13:45:24.113Z,20.95
2018-05-08T13:47:51.842Z,20.86
2018-05-08T13:50:19.750Z,20.93
2018-05-08T13:52:47.512Z,21.14
2018-05-08T13:55:15.179Z,20.97
2018-05-08T13:57:43.040Z,20.79
2018-05-08T14:00:10.726Z,20.88
2018-05-08T14:02:38.569Z,20.38
2018-05-08T14:05:06.334Z,21.42
2018-05-08T14:07:34.050Z,20.75
2018-05-08T14:10:01.757Z,20.83
2018-05-08T14:12:29.526Z,20.68
2018-05-08T14:14:57.296Z,21.13
2018-05-08T14:17:25.153Z,20.79
2018-05-08T14:19:52.864Z,20.70
2018-05-08T14:22:20.683Z,21.19
2018-05-08T14:24:48.482Z,21.16
2018-05-08T14:27:16.213Z,20.86
2018-05-08T14:29:44.186Z,20.22
2018-05-08T14:32:11.791Z,19.87
2018-05-08T14:34:39.473Z,19.63
2018-05-08T14:37:07.098Z,19.87
2018-05-08T14:39:34.832Z,19.72
2018-05-08T14:42:02.488Z,20.31
2018-05-08T14:44:30.257Z,20.63
2018-05-08T14:46:58.329Z,21.18
2018-05-08T14:49:26.134Z,22.02
2018-05-08T14:51:53.809Z,22.10
2018-05-08T14:54:21.519Z,21.03
2018-05-08T14:56:49.181Z,21.88
2018-05-08T14:59:17.040Z,20.49
2018-05-08T15:01:44.823Z,20.22
2018-05-08T15:04:12.659Z,20.82
2018-05-08T15:06:40.857Z,21.37
2018-05-08T15:09:08.620Z,21.32
2018-05-08T15:11:36.353Z,20.54
2018-05-08T15:14:04.639Z,20.43
2018-05-08T15:16:32.429Z,20.71
2018-05-08T15:21:55.963Z,21.25
2018-05-08T15:24:23.745Z,21.16
2018-05-08T15:26:51.400Z,21.66
2018-05-08T15:29:19.166Z,22.08
2018-05-08T15:31:47.323Z,22.11
2018-05-08T15:34:15.047Z,21.64
2018-05-08T15:36:42.776Z,20.92
2018-05-08T15:39:10.537Z,21.83
2018-05-08T15:41:38.199Z,21.31
2018-05-08T15:44:06.168Z,21.76
2018-05-08T15:46:33.830Z,22.45
2018-05-08T15:49:01.598Z,22.54
2018-05-08T15:51:29.360Z,22.73
2018-05-08T15:53:57.227Z,23.34
2018-05-08T15:56:24.950Z,23.21
2018-05-08T15:58:52.755Z,22.74
2018-05-08T16:01:20.519Z,22.83
2018-05-08T16:03:48.285Z,22.97
2018-05-08T16:06:15.892Z,22.47
2018-05-08T16:08:43.603Z,22.13
2018-05-08T16:11:11.199Z,23.04
2018-05-08T16:13:39.034Z,22.38
2018-05-08T16:16:06.734Z,22.57
2018-05-08T16:18:34.555Z,22.87
2018-05-08T16:21:02.254Z,22.94
2018-05-08T16:23:30.093Z,22.44
2018-05-08T16:25:57.753Z,22.38
2018-05-08T16:28:25.621Z,22.35
2018-05-08T16:30:53.286Z,24.15
2018-05-08T16:33:21.560Z,23.86
2018-05-08T16:35:49.332Z,23.22
2018-05-08T16:38:17.044Z,23.67
2018-05-08T16:40:44.853Z,23.03
2018-05-08T16:43:12.576Z,22.91
2018-05-08T16:45:40.385Z,23.11
2018-05-08T16:48:08.297Z,22.13
2018-05-08T16:50:36.220Z,23.83
2018-05-08T16:53:03.881Z,24.56
2018-05-08T16:55:31.957Z,23.21
2018-05-08T16:57:59.723Z,23.92
2018-05-08T17:00:27.480Z,23.38
2018-05-08T17:02:55.167Z,23.65
2018-05-08T17:05:23.014Z,23.38
2018-05-08T17:07:50.746Z,23.74
2018-05-08T17:10:18.489Z,24.07
2018-05-08T17:12:46.307Z,24.08
2018-05-08T17:15:13.967Z,23.94
2018-05-08T17:17:41.737Z,24.46
2018-05-08T17:20:09.488Z,23.59
2018-05-08T17:22:37.262Z,24.66
2018-05-08T17:25:05.026Z,24.30
2018-05-08T17:27:32.805Z,23.49
2018-05-08T17:30:00.524Z,22.71
2018-05-08T17:32:28.216Z,23.27
2018-05-08T17:34:55.878Z,22.80
2018-05-08T17:37:23.643Z,22.90
2018-05-08T17:39:51.371Z,22.74
2018-05-08T17:42:19.064Z,23.38
2018-05-08T17:44:46.732Z,23.83
2018-05-08T17:47:14.444Z,23.48
2018-05-08T17:49:42.265Z,23.69
2018-05-08T17:52:10.125Z,24.49
2018-05-08T17:54:37.685Z,24.15
2018-05-08T17:57:05.683Z,23.31
2018-05-08T17:59:33.730Z,23.69
2018-05-08T18:02:01.494Z,23.28
2018-05-08T18:04:29.215Z,23.69
2018-05-08T18:06:56.921Z,24.81
2018-05-08T18:09:24.583Z,25.42
2018-05-08T18:11:52.344Z,24.94
2018-05-08T18:14:20.111Z,24.32
2018-05-08T18:16:47.875Z,24.05
2018-05-08T18:19:15.747Z,24.72
2018-05-08T18:21:43.395Z,25.64
2018-05-08T18:24:11.271Z,25.94
2018-05-08T18:26:39.035Z,26.08
2018-05-08T18:29:06.809Z,26.51
2018-05-08T18:31:34.675Z,26.42
2018-05-08T18:34:02.455Z,27.12
2018-05-08T18:36:30.197Z,26.85
2018-05-08T18:38:57.968Z,26.87
2018-05-08T18:41:25.621Z,26.64
2018-05-08T18:43:53.339Z,26.63
2018-05-08T18:46:21.187Z,26.82
2018-05-08T18:48:48.916Z,26.79
2018-05-08T18:51:16.576Z,26.70
2018-05-08T18:53:44.750Z,26.72
2018-05-08T18:56:12.529Z,27.12
2018-05-08T18:58:40.390Z,27.51
2018-05-08T19:01:08.254Z,27.65
2018-05-08T19:03:36.126Z,27.77
2018-05-08T19:06:03.904Z,27.99
2018-05-08T19:08:31.677Z,28.08
2018-05-08T19:11:05.050Z,28.39
2018-05-08T19:13:32.918Z,28.48
2018-05-08T19:16:05.903Z,28.58
2018-05-08T19:18:39.403Z,28.31
2018-05-08T19:21:07.211Z,28.67
2018-05-08T19:23:35.203Z,28.50
2018-05-08T19:26:03.113Z,30.14
2018-05-08T19:28:36.409Z,30.80
2018-05-08T19:31:04.259Z,30.83
2018-05-08T19:33:32.038Z,31.51
2018-05-08T19:36:05.471Z,31.56
2018-05-08T19:38:33.297Z,31.65
2018-05-08T19:41:01.164Z,31.35
2018-05-08T19:43:28.923Z,31.45
2018-05-08T19:45:56.789Z,30.35
2018-05-08T19:48:24.662Z,31.07
2018-05-08T19:50:52.528Z,32.44
2018-05-08T19:53:20.360Z,32.63
2018-05-08T19:55:48.262Z,33.36
2018-05-08T19:58:16.129Z,34.07
2018-05-08T20:00:43.991Z,33.90
2018-05-08T20:03:11.761Z,34.10
2018-05-08T20:05:39.628Z,34.62
2018-05-08T20:08:07.451Z,34.48
2018-05-08T20:10:35.249Z,35.10
2018-05-08T20:13:11.171Z,34.27
2018-05-08T20:15:38.973Z,33.25
2018-05-08T20:18:06.737Z,33.55
2018-05-08T20:20:34.504Z,33.31
2018-05-08T20:23:02.471Z,34.77
2018-05-08T20:25:30.159Z,34.68
2018-05-08T20:27:57.843Z,35.26
2018-05-08T20:30:25.487Z,35.42
2018-05-08T20:32:53.120Z,36.12
2018-05-08T20:35:20.787Z,36.60
2018-05-08T20:37:48.399Z,36.95
2018-05-08T20:40:16.208Z,36.86
2018-05-08T20:42:43.927Z,37.07
2018-05-08T20:45:11.737Z,37.60
2018-05-08T20:47:39.399Z,37.38
2018-05-08T20:50:07.271Z,37.28
2018-05-08T20:52:34.996Z,37.62
2018-05-08T20:55:02.796Z,37.51
2018-05-08T20:57:30.561Z,36.59
2018-05-08T20:59:58.953Z,37.48
2018-05-08T21:02:26.703Z,37.34
2018-05-08T21:04:54.557Z,37.13
2018-05-08T21:07:22.439Z,37.33
2018-05-08T21:09:50.101Z,37.35
2018-05-08T21:12:17.765Z,37.82
2018-05-08T21:14:46.654Z,38.47
2018-05-08T21:17:14.327Z,39.09
2018-05-08T21:19:42.083Z,39.81
2018-05-08T21:22:09.842Z,39.98
2018-05-08T21:24:37.565Z,40.04
2018-05-08T21:27:05.339Z,40.01
2018-05-08T21:29:38.563Z,40.29
2018-05-08T21:32:06.436Z,40.63
2018-05-08T21:34:34.068Z,40.69
2018-05-08T21:37:01.755Z,41.02
2018-05-08T21:39:30.201Z,41.49
2018-05-08T21:41:57.899Z,41.50
2018-05-08T21:44:25.663Z,40.47
2018-05-08T21:46:53.318Z,40.56
2018-05-08T21:49:20.987Z,41.06
2018-05-08T21:51:48.652Z,41.61
2018-05-08T21:54:16.469Z,42.17
2018-05-08T21:56:44.178Z,42.30
2018-05-08T21:59:12.047Z,42.47
2018-05-08T22:01:39.705Z,42.30
2018-05-08T22:04:07.477Z,42.50
2018-05-08T22:06:35.279Z,42.56
2018-05-08T22:09:02.904Z,43.12
2018-05-08T22:11:30.765Z,43.03
2018-05-08T22:13:58.474Z,42.87
2018-05-08T22:16:26.203Z,43.71
2018-05-08T22:18:53.858Z,43.63
2018-05-08T22:21:21.723Z,43.55
2018-05-08T22:23:49.490Z,44.29
2018-05-08T22:26:17.313Z,43.70
2018-05-08T22:28:45.118Z,43.97
2018-05-08T22:31:12.786Z,44.10
2018-05-08T22:33:40.542Z,43.98
2018-05-08T22:36:08.255Z,43.77
2018-05-08T22:38:35.963Z,43.82
2018-05-08T22:41:03.734Z,43.63
2018-05-08T22:43:31.372Z,43.45
2018-05-08T22:45:59.165Z,43.36
2018-05-08T22:48:26.889Z,43.70
2018-05-08T22:50:54.688Z,43.35
2018-05-08T22:53:22.352Z,43.96
2018-05-08T22:55:50.065Z,44.28
2018-05-08T22:58:17.777Z,44.73
2018-05-08T23:00:45.645Z,44.67
2018-05-08T23:03:13.366Z,44.71
2018-05-08T23:05:41.075Z,45.10
2018-05-08T23:08:08.739Z,45.51
2018-05-08T23:10:36.601Z,44.96
2018-05-08T23:13:04.475Z,45.17
2018-05-08T23:15:32.454Z,45.25
2018-05-08T23:18:00.312Z,45.37
2018-05-08T23:20:28.131Z,45.81
2018-05-08T23:22:55.936Z,46.74
2018-05-08T23:25:23.702Z,46.82
2018-05-08T23:27:51.409Z,46.83
2018-05-08T23:30:19.232Z,46.91
2018-05-08T23:32:47.049Z,47.44
2018-05-08T23:35:14.763Z,47.29
2018-05-08T23:37:42.524Z,47.67
2018-05-08T23:40:10.343Z,47.95
2018-05-08T23:42:38.055Z,47.54
2018-05-08T23:45:05.753Z,47.26
2018-05-08T23:47:33.694Z,46.44
2018-05-08T23:50:01.550Z,46.40
2018-05-08T23:52:29.219Z,46.67
2018-05-08T23:54:57.069Z,46.87
2018-05-08T23:57:24.787Z,46.99
2018-05-08T23:59:52.608Z,47.42
